sensor_id;sensor_type;location;lat;lon;timestamp;P1;durP1;ratioP1;P2;durP2;ratioP2
51148;SDS011;37210;50.058;8.688;2023-10-19T00:00:04;9.05;;;8.07;;
51148;SDS011;37210;50.058;8.688;2023-10-19T00:02:48;8.93;;;8.02;;
51148;SDS011;37210;50.058;8.688;2023-10-19T00:05:18;9.05;;;8.20;;
51148;SDS011;37210;50.058;8.688;2023-10-19T00:07:46;9.38;;;8.48;;
51148;SDS011;37210;50.058;8.688;2023-10-19T00:10:12;9.30;;;8.50;;
51148;SDS011;37210;50.058;8.688;2023-10-19T00:12:42;8.00;;;7.30;;
51148;SDS011;37210;50.058;8.688;2023-10-19T00:15:16;8.27;;;7.53;;
51148;SDS011;37210;50.058;8.688;2023-10-19T00:17:48;9.13;;;8.27;;
51148;SDS011;37210;50.058;8.688;2023-10-19T00:20:21;8.70;;;7.97;;
51148;SDS011;37210;50.058;8.688;2023-10-19T00:23:03;8.93;;;8.13;;
51148;SDS011;37210;50.058;8.688;2023-10-19T00:25:32;9.00;;;8.10;;
51148;SDS011;37210;50.058;8.688;2023-10-19T00:28:00;9.48;;;8.57;;
51148;SDS011;37210;50.058;8.688;2023-10-19T00:30:30;8.93;;;8.10;;
51148;SDS011;37210;50.058;8.688;2023-10-19T00:33:01;9.00;;;8.13;;
51148;SDS011;37210;50.058;8.688;2023-10-19T00:35:31;9.63;;;8.80;;
51148;SDS011;37210;50.058;8.688;2023-10-19T00:38:01;9.23;;;8.43;;
51148;SDS011;37210;50.058;8.688;2023-10-19T00:40:50;8.95;;;8.15;;
51148;SDS011;37210;50.058;8.688;2023-10-19T00:43:26;9.65;;;8.75;;
51148;SDS011;37210;50.058;8.688;2023-10-19T00:45:58;8.35;;;7.55;;
51148;SDS011;37210;50.058;8.688;2023-10-19T00:48:28;8.85;;;8.02;;
51148;SDS011;37210;50.058;8.688;2023-10-19T00:50:59;9.98;;;8.18;;
51148;SDS011;37210;50.058;8.688;2023-10-19T00:53:35;9.32;;;8.43;;
51148;SDS011;37210;50.058;8.688;2023-10-19T00:56:06;9.20;;;8.40;;
51148;SDS011;37210;50.058;8.688;2023-10-19T00:58:36;9.88;;;8.88;;
51148;SDS011;37210;50.058;8.688;2023-10-19T01:01:07;8.55;;;7.75;;
51148;SDS011;37210;50.058;8.688;2023-10-19T01:03:34;10.30;;;9.30;;
51148;SDS011;37210;50.058;8.688;2023-10-19T01:06:05;9.27;;;8.13;;
51148;SDS011;37210;50.058;8.688;2023-10-19T01:08:36;8.75;;;7.82;;
51148;SDS011;37210;50.058;8.688;2023-10-19T01:11:11;9.07;;;8.27;;
51148;SDS011;37210;50.058;8.688;2023-10-19T01:13:41;9.15;;;8.35;;
51148;SDS011;37210;50.058;8.688;2023-10-19T01:16:11;8.93;;;8.02;;
51148;SDS011;37210;50.058;8.688;2023-10-19T01:18:47;8.63;;;7.93;;
51148;SDS011;37210;50.058;8.688;2023-10-19T01:21:21;8.85;;;7.95;;
51148;SDS011;37210;50.058;8.688;2023-10-19T01:23:54;9.23;;;8.43;;
51148;SDS011;37210;50.058;8.688;2023-10-19T01:26:22;9.10;;;8.23;;
51148;SDS011;37210;50.058;8.688;2023-10-19T01:28:52;9.43;;;8.52;;
51148;SDS011;37210;50.058;8.688;2023-10-19T01:31:24;8.60;;;7.80;;
51148;SDS011;37210;50.058;8.688;2023-10-19T01:34:04;9.45;;;8.55;;
51148;SDS011;37210;50.058;8.688;2023-10-19T01:36:32;9.23;;;8.20;;
51148;SDS011;37210;50.058;8.688;2023-10-19T01:39:09;9.13;;;8.23;;
51148;SDS011;37210;50.058;8.688;2023-10-19T01:41:37;9.40;;;8.50;;
51148;SDS011;37210;50.058;8.688;2023-10-19T01:44:07;9.65;;;8.65;;
51148;SDS011;37210;50.058;8.688;2023-10-19T01:46:34;9.82;;;8.85;;
51148;SDS011;37210;50.058;8.688;2023-10-19T01:49:02;8.98;;;8.15;;
51148;SDS011;37210;50.058;8.688;2023-10-19T01:51:31;8.85;;;8.05;;
51148;SDS011;37210;50.058;8.688;2023-10-19T01:54:04;8.80;;;7.90;;
51148;SDS011;37210;50.058;8.688;2023-10-19T01:56:33;8.60;;;7.82;;
51148;SDS011;37210;50.058;8.688;2023-10-19T01:59:02;9.40;;;8.35;;
51148;SDS011;37210;50.058;8.688;2023-10-19T02:01:31;9.93;;;8.93;;
51148;SDS011;37210;50.058;8.688;2023-10-19T02:03:58;9.10;;;8.20;;
51148;SDS011;37210;50.058;8.688;2023-10-19T02:06:29;9.18;;;8.00;;
51148;SDS011;37210;50.058;8.688;2023-10-19T02:09:02;10.25;;;8.10;;
51148;SDS011;37210;50.058;8.688;2023-10-19T02:11:44;8.70;;;7.90;;
51148;SDS011;37210;50.058;8.688;2023-10-19T02:14:13;8.95;;;8.15;;
51148;SDS011;37210;50.058;8.688;2023-10-19T02:16:42;8.77;;;7.90;;
51148;SDS011;37210;50.058;8.688;2023-10-19T02:19:12;8.77;;;7.90;;
51148;SDS011;37210;50.058;8.688;2023-10-19T02:21:40;8.63;;;7.90;;
51148;SDS011;37210;50.058;8.688;2023-10-19T02:24:09;8.63;;;7.88;;
51148;SDS011;37210;50.058;8.688;2023-10-19T02:26:40;9.48;;;8.50;;
51148;SDS011;37210;50.058;8.688;2023-10-19T02:29:10;8.93;;;8.15;;
51148;SDS011;37210;50.058;8.688;2023-10-19T02:31:36;8.85;;;8.00;;
51148;SDS011;37210;50.058;8.688;2023-10-19T02:34:06;9.52;;;8.60;;
51148;SDS011;37210;50.058;8.688;2023-10-19T02:36:35;9.48;;;8.43;;
51148;SDS011;37210;50.058;8.688;2023-10-19T02:39:06;8.73;;;7.90;;
51148;SDS011;37210;50.058;8.688;2023-10-19T02:41:36;9.18;;;8.05;;
51148;SDS011;37210;50.058;8.688;2023-10-19T02:44:07;8.98;;;8.10;;
51148;SDS011;37210;50.058;8.688;2023-10-19T02:46:45;8.35;;;7.57;;
51148;SDS011;37210;50.058;8.688;2023-10-19T02:49:16;10.13;;;8.95;;
51148;SDS011;37210;50.058;8.688;2023-10-19T02:51:47;9.55;;;8.65;;
51148;SDS011;37210;50.058;8.688;2023-10-19T02:54:18;8.98;;;8.18;;
51148;SDS011;37210;50.058;8.688;2023-10-19T02:56:47;9.60;;;8.73;;
51148;SDS011;37210;50.058;8.688;2023-10-19T02:59:19;9.13;;;8.27;;
51148;SDS011;37210;50.058;8.688;2023-10-19T03:01:48;8.57;;;7.68;;
51148;SDS011;37210;50.058;8.688;2023-10-19T03:04:18;9.10;;;8.27;;
51148;SDS011;37210;50.058;8.688;2023-10-19T03:06:44;9.25;;;8.35;;
51148;SDS011;37210;50.058;8.688;2023-10-19T03:09:12;9.02;;;8.15;;
51148;SDS011;37210;50.058;8.688;2023-10-19T03:11:48;9.60;;;8.63;;
51148;SDS011;37210;50.058;8.688;2023-10-19T03:14:20;9.40;;;8.50;;
51148;SDS011;37210;50.058;8.688;2023-10-19T03:16:46;8.30;;;7.50;;
51148;SDS011;37210;50.058;8.688;2023-10-19T03:19:15;9.23;;;8.35;;
51148;SDS011;37210;50.058;8.688;2023-10-19T03:21:41;9.13;;;8.23;;
51148;SDS011;37210;50.058;8.688;2023-10-19T03:24:10;9.40;;;8.45;;
51148;SDS011;37210;50.058;8.688;2023-10-19T03:26:41;9.05;;;8.32;;
51148;SDS011;37210;50.058;8.688;2023-10-19T03:29:09;9.52;;;8.63;;
51148;SDS011;37210;50.058;8.688;2023-10-19T03:31:40;9.75;;;8.85;;
51148;SDS011;37210;50.058;8.688;2023-10-19T03:34:11;10.43;;;9.38;;
51148;SDS011;37210;50.058;8.688;2023-10-19T03:36:39;10.07;;;9.05;;
51148;SDS011;37210;50.058;8.688;2023-10-19T03:39:08;9.98;;;9.00;;
51148;SDS011;37210;50.058;8.688;2023-10-19T03:41:41;8.88;;;8.07;;
51148;SDS011;37210;50.058;8.688;2023-10-19T03:44:09;10.55;;;9.32;;
51148;SDS011;37210;50.058;8.688;2023-10-19T03:46:47;9.40;;;8.48;;
51148;SDS011;37210;50.058;8.688;2023-10-19T03:49:22;10.77;;;9.77;;
51148;SDS011;37210;50.058;8.688;2023-10-19T03:51:52;10.15;;;9.25;;
51148;SDS011;37210;50.058;8.688;2023-10-19T03:54:45;10.43;;;9.23;;
51148;SDS011;37210;50.058;8.688;2023-10-19T03:57:14;10.25;;;9.35;;
51148;SDS011;37210;50.058;8.688;2023-10-19T03:59:48;10.75;;;9.65;;
51148;SDS011;37210;50.058;8.688;2023-10-19T04:02:21;10.73;;;9.73;;
51148;SDS011;37210;50.058;8.688;2023-10-19T04:04:49;10.30;;;9.30;;
51148;SDS011;37210;50.058;8.688;2023-10-19T04:07:18;10.10;;;9.10;;
51148;SDS011;37210;50.058;8.688;2023-10-19T04:09:47;10.93;;;9.85;;
51148;SDS011;37210;50.058;8.688;2023-10-19T04:12:35;10.88;;;9.77;;
51148;SDS011;37210;50.058;8.688;2023-10-19T04:15:07;10.98;;;10.07;;
51148;SDS011;37210;50.058;8.688;2023-10-19T04:17:39;9.65;;;8.82;;
51148;SDS011;37210;50.058;8.688;2023-10-19T04:20:08;10.85;;;9.75;;
51148;SDS011;37210;50.058;8.688;2023-10-19T04:22:52;9.95;;;9.02;;
51148;SDS011;37210;50.058;8.688;2023-10-19T04:25:20;11.65;;;10.57;;
51148;SDS011;37210;50.058;8.688;2023-10-19T04:27:51;11.63;;;10.52;;
51148;SDS011;37210;50.058;8.688;2023-10-19T04:30:19;11.48;;;10.38;;
51148;SDS011;37210;50.058;8.688;2023-10-19T04:32:50;10.38;;;9.40;;
51148;SDS011;37210;50.058;8.688;2023-10-19T04:35:18;11.35;;;10.23;;
51148;SDS011;37210;50.058;8.688;2023-10-19T04:37:48;12.20;;;10.98;;
51148;SDS011;37210;50.058;8.688;2023-10-19T04:40:16;12.20;;;10.75;;
51148;SDS011;37210;50.058;8.688;2023-10-19T04:42:44;12.82;;;11.52;;
51148;SDS011;37210;50.058;8.688;2023-10-19T04:45:12;13.55;;;12.27;;
51148;SDS011;37210;50.058;8.688;2023-10-19T04:47:40;13.07;;;11.70;;
51148;SDS011;37210;50.058;8.688;2023-10-19T04:50:10;13.63;;;12.30;;
51148;SDS011;37210;50.058;8.688;2023-10-19T04:52:38;13.98;;;12.35;;
51148;SDS011;37210;50.058;8.688;2023-10-19T04:55:06;14.27;;;12.82;;
51148;SDS011;37210;50.058;8.688;2023-10-19T04:57:34;13.18;;;11.88;;
51148;SDS011;37210;50.058;8.688;2023-10-19T05:00:02;13.10;;;11.82;;
51148;SDS011;37210;50.058;8.688;2023-10-19T05:02:30;14.68;;;13.25;;
51148;SDS011;37210;50.058;8.688;2023-10-19T05:04:58;16.50;;;14.77;;
51148;SDS011;37210;50.058;8.688;2023-10-19T05:07:27;16.48;;;14.88;;
51148;SDS011;37210;50.058;8.688;2023-10-19T05:09:54;16.10;;;14.52;;
51148;SDS011;37210;50.058;8.688;2023-10-19T05:12:22;16.23;;;14.63;;
51148;SDS011;37210;50.058;8.688;2023-10-19T05:14:49;17.38;;;15.73;;
51148;SDS011;37210;50.058;8.688;2023-10-19T05:17:17;18.02;;;16.13;;
51148;SDS011;37210;50.058;8.688;2023-10-19T05:19:46;18.13;;;16.30;;
51148;SDS011;37210;50.058;8.688;2023-10-19T05:22:16;18.80;;;16.90;;
51148;SDS011;37210;50.058;8.688;2023-10-19T05:24:45;17.60;;;15.90;;
51148;SDS011;37210;50.058;8.688;2023-10-19T05:27:13;19.95;;;17.95;;
51148;SDS011;37210;50.058;8.688;2023-10-19T05:29:41;18.17;;;16.48;;
51148;SDS011;37210;50.058;8.688;2023-10-19T05:32:08;19.75;;;17.17;;
51148;SDS011;37210;50.058;8.688;2023-10-19T05:34:36;19.52;;;17.25;;
51148;SDS011;37210;50.058;8.688;2023-10-19T05:37:03;19.83;;;17.75;;
51148;SDS011;37210;50.058;8.688;2023-10-19T05:39:31;19.27;;;17.40;;
51148;SDS011;37210;50.058;8.688;2023-10-19T05:42:01;19.75;;;17.63;;
51148;SDS011;37210;50.058;8.688;2023-10-19T05:44:28;18.67;;;16.85;;
51148;SDS011;37210;50.058;8.688;2023-10-19T05:46:57;18.60;;;16.70;;
51148;SDS011;37210;50.058;8.688;2023-10-19T05:49:25;19.08;;;17.08;;
51148;SDS011;37210;50.058;8.688;2023-10-19T05:51:54;18.17;;;16.45;;
51148;SDS011;37210;50.058;8.688;2023-10-19T05:54:21;18.42;;;16.63;;
51148;SDS011;37210;50.058;8.688;2023-10-19T05:56:50;18.67;;;16.70;;
51148;SDS011;37210;50.058;8.688;2023-10-19T05:59:20;17.95;;;16.10;;
51148;SDS011;37210;50.058;8.688;2023-10-19T06:01:49;17.27;;;15.65;;
51148;SDS011;37210;50.058;8.688;2023-10-19T06:04:17;17.85;;;16.25;;
51148;SDS011;37210;50.058;8.688;2023-10-19T06:06:46;17.50;;;15.40;;
51148;SDS011;37210;50.058;8.688;2023-10-19T06:09:14;16.83;;;15.18;;
51148;SDS011;37210;50.058;8.688;2023-10-19T06:11:42;18.55;;;16.58;;
51148;SDS011;37210;50.058;8.688;2023-10-19T06:14:10;17.50;;;15.80;;
51148;SDS011;37210;50.058;8.688;2023-10-19T06:16:39;17.52;;;15.73;;
51148;SDS011;37210;50.058;8.688;2023-10-19T06:19:06;18.35;;;16.45;;
51148;SDS011;37210;50.058;8.688;2023-10-19T06:21:34;17.55;;;15.75;;
51148;SDS011;37210;50.058;8.688;2023-10-19T06:24:03;20.10;;;16.60;;
51148;SDS011;37210;50.058;8.688;2023-10-19T06:26:31;18.90;;;15.95;;
51148;SDS011;37210;50.058;8.688;2023-10-19T06:28:58;18.50;;;16.63;;
51148;SDS011;37210;50.058;8.688;2023-10-19T06:31:27;17.08;;;15.25;;
51148;SDS011;37210;50.058;8.688;2023-10-19T06:33:56;17.27;;;15.57;;
51148;SDS011;37210;50.058;8.688;2023-10-19T06:36:24;17.65;;;15.85;;
51148;SDS011;37210;50.058;8.688;2023-10-19T06:38:52;16.50;;;14.77;;
51148;SDS011;37210;50.058;8.688;2023-10-19T06:41:20;18.52;;;16.83;;
51148;SDS011;37210;50.058;8.688;2023-10-19T06:43:47;16.95;;;15.25;;
51148;SDS011;37210;50.058;8.688;2023-10-19T06:46:15;16.55;;;14.95;;
51148;SDS011;37210;50.058;8.688;2023-10-19T06:48:43;16.65;;;14.98;;
51148;SDS011;37210;50.058;8.688;2023-10-19T06:51:12;19.63;;;16.30;;
51148;SDS011;37210;50.058;8.688;2023-10-19T06:53:42;18.73;;;16.65;;
51148;SDS011;37210;50.058;8.688;2023-10-19T06:56:10;18.88;;;16.13;;
51148;SDS011;37210;50.058;8.688;2023-10-19T06:58:37;18.25;;;16.48;;
51148;SDS011;37210;50.058;8.688;2023-10-19T07:01:07;18.92;;;16.67;;
51148;SDS011;37210;50.058;8.688;2023-10-19T07:03:34;18.30;;;16.23;;
51148;SDS011;37210;50.058;8.688;2023-10-19T07:06:02;18.67;;;16.77;;
51148;SDS011;37210;50.058;8.688;2023-10-19T07:08:33;19.27;;;17.35;;
51148;SDS011;37210;50.058;8.688;2023-10-19T07:11:01;20.98;;;18.00;;
51148;SDS011;37210;50.058;8.688;2023-10-19T07:13:29;18.48;;;16.58;;
51148;SDS011;37210;50.058;8.688;2023-10-19T07:15:58;18.55;;;15.82;;
51148;SDS011;37210;50.058;8.688;2023-10-19T07:18:26;18.33;;;16.45;;
51148;SDS011;37210;50.058;8.688;2023-10-19T07:20:54;19.52;;;17.52;;
51148;SDS011;37210;50.058;8.688;2023-10-19T07:23:28;19.30;;;17.25;;
51148;SDS011;37210;50.058;8.688;2023-10-19T07:25:57;18.40;;;16.60;;
51148;SDS011;37210;50.058;8.688;2023-10-19T07:28:26;19.20;;;16.52;;
51148;SDS011;37210;50.058;8.688;2023-10-19T07:30:54;18.48;;;16.48;;
51148;SDS011;37210;50.058;8.688;2023-10-19T07:33:24;18.30;;;16.50;;
51148;SDS011;37210;50.058;8.688;2023-10-19T07:35:56;18.05;;;16.33;;
51148;SDS011;37210;50.058;8.688;2023-10-19T07:38:26;19.52;;;16.27;;
51148;SDS011;37210;50.058;8.688;2023-10-19T07:40:54;19.27;;;16.92;;
51148;SDS011;37210;50.058;8.688;2023-10-19T07:43:23;21.25;;;18.75;;
51148;SDS011;37210;50.058;8.688;2023-10-19T07:45:51;18.95;;;16.95;;
51148;SDS011;37210;50.058;8.688;2023-10-19T07:48:18;19.02;;;17.05;;
51148;SDS011;37210;50.058;8.688;2023-10-19T07:50:46;18.27;;;16.48;;
51148;SDS011;37210;50.058;8.688;2023-10-19T07:53:14;18.63;;;16.48;;
51148;SDS011;37210;50.058;8.688;2023-10-19T07:55:42;19.67;;;15.82;;
51148;SDS011;37210;50.058;8.688;2023-10-19T07:58:10;17.83;;;15.38;;
51148;SDS011;37210;50.058;8.688;2023-10-19T08:00:39;17.88;;;15.98;;
51148;SDS011;37210;50.058;8.688;2023-10-19T08:03:08;22.83;;;18.90;;
51148;SDS011;37210;50.058;8.688;2023-10-19T08:05:36;19.25;;;16.02;;
51148;SDS011;37210;50.058;8.688;2023-10-19T08:08:04;16.70;;;14.98;;
51148;SDS011;37210;50.058;8.688;2023-10-19T08:10:32;17.90;;;16.10;;
51148;SDS011;37210;50.058;8.688;2023-10-19T08:13:00;17.65;;;15.90;;
51148;SDS011;37210;50.058;8.688;2023-10-19T08:15:28;21.48;;;19.42;;
51148;SDS011;37210;50.058;8.688;2023-10-19T08:17:57;19.25;;;17.30;;
51148;SDS011;37210;50.058;8.688;2023-10-19T08:20:25;19.17;;;17.27;;
51148;SDS011;37210;50.058;8.688;2023-10-19T08:22:56;16.98;;;15.38;;
51148;SDS011;37210;50.058;8.688;2023-10-19T08:25:27;17.25;;;15.52;;
51148;SDS011;37210;50.058;8.688;2023-10-19T08:27:55;17.38;;;15.40;;
51148;SDS011;37210;50.058;8.688;2023-10-19T08:30:23;16.83;;;15.10;;
51148;SDS011;37210;50.058;8.688;2023-10-19T08:32:52;16.40;;;14.80;;
51148;SDS011;37210;50.058;8.688;2023-10-19T08:35:22;15.85;;;14.18;;
51148;SDS011;37210;50.058;8.688;2023-10-19T08:37:51;16.75;;;14.75;;
51148;SDS011;37210;50.058;8.688;2023-10-19T08:40:19;17.60;;;15.80;;
51148;SDS011;37210;50.058;8.688;2023-10-19T08:42:49;16.40;;;14.80;;
51148;SDS011;37210;50.058;8.688;2023-10-19T08:45:17;24.40;;;21.90;;
51148;SDS011;37210;50.058;8.688;2023-10-19T08:47:48;26.50;;;19.38;;
51148;SDS011;37210;50.058;8.688;2023-10-19T08:50:24;23.10;;;18.63;;
51148;SDS011;37210;50.058;8.688;2023-10-19T08:52:55;16.95;;;14.98;;
51148;SDS011;37210;50.058;8.688;2023-10-19T08:55:23;18.75;;;16.67;;
51148;SDS011;37210;50.058;8.688;2023-10-19T08:57:52;18.38;;;15.70;;
51148;SDS011;37210;50.058;8.688;2023-10-19T09:00:22;17.70;;;15.90;;
51148;SDS011;37210;50.058;8.688;2023-10-19T09:02:51;16.75;;;15.00;;
51148;SDS011;37210;50.058;8.688;2023-10-19T09:05:19;18.30;;;16.40;;
51148;SDS011;37210;50.058;8.688;2023-10-19T09:07:50;18.38;;;16.45;;
51148;SDS011;37210;50.058;8.688;2023-10-19T09:10:20;18.67;;;16.75;;
51148;SDS011;37210;50.058;8.688;2023-10-19T09:12:57;16.67;;;14.88;;
51148;SDS011;37210;50.058;8.688;2023-10-19T09:15:27;18.42;;;16.52;;
51148;SDS011;37210;50.058;8.688;2023-10-19T09:17:58;17.77;;;16.08;;
51148;SDS011;37210;50.058;8.688;2023-10-19T09:20:38;16.55;;;14.88;;
51148;SDS011;37210;50.058;8.688;2023-10-19T09:23:09;17.55;;;15.75;;
51148;SDS011;37210;50.058;8.688;2023-10-19T09:25:36;17.77;;;16.10;;
51148;SDS011;37210;50.058;8.688;2023-10-19T09:28:05;17.40;;;15.55;;
51148;SDS011;37210;50.058;8.688;2023-10-19T09:30:36;15.82;;;14.23;;
51148;SDS011;37210;50.058;8.688;2023-10-19T09:33:04;15.68;;;14.27;;
51148;SDS011;37210;50.058;8.688;2023-10-19T09:35:32;16.77;;;15.07;;
51148;SDS011;37210;50.058;8.688;2023-10-19T09:38:03;28.48;;;25.45;;
51148;SDS011;37210;50.058;8.688;2023-10-19T09:40:33;23.48;;;21.25;;
51148;SDS011;37210;50.058;8.688;2023-10-19T09:43:02;17.45;;;15.77;;
51148;SDS011;37210;50.058;8.688;2023-10-19T09:45:36;19.20;;;17.30;;
51148;SDS011;37210;50.058;8.688;2023-10-19T09:48:08;17.27;;;15.43;;
51148;SDS011;37210;50.058;8.688;2023-10-19T09:50:43;15.32;;;14.00;;
51148;SDS011;37210;50.058;8.688;2023-10-19T09:53:20;15.77;;;14.38;;
51148;SDS011;37210;50.058;8.688;2023-10-19T09:55:54;15.13;;;13.73;;
51148;SDS011;37210;50.058;8.688;2023-10-19T09:58:26;16.20;;;14.50;;
51148;SDS011;37210;50.058;8.688;2023-10-19T10:00:58;15.68;;;14.27;;
51148;SDS011;37210;50.058;8.688;2023-10-19T10:03:41;15.77;;;13.10;;
51148;SDS011;37210;50.058;8.688;2023-10-19T10:06:13;13.93;;;12.68;;
51148;SDS011;37210;50.058;8.688;2023-10-19T10:08:42;14.88;;;13.43;;
51148;SDS011;37210;50.058;8.688;2023-10-19T10:11:17;14.25;;;12.98;;
51148;SDS011;37210;50.058;8.688;2023-10-19T10:13:46;13.80;;;12.50;;
51148;SDS011;37210;50.058;8.688;2023-10-19T10:16:19;13.60;;;12.32;;
51148;SDS011;37210;50.058;8.688;2023-10-19T10:18:51;12.70;;;11.55;;
51148;SDS011;37210;50.058;8.688;2023-10-19T10:21:25;13.23;;;11.93;;
51148;SDS011;37210;50.058;8.688;2023-10-19T10:23:54;13.05;;;11.95;;
51148;SDS011;37210;50.058;8.688;2023-10-19T10:26:26;12.63;;;11.43;;
51148;SDS011;37210;50.058;8.688;2023-10-19T10:29:10;10.75;;;9.65;;
51148;SDS011;37210;50.058;8.688;2023-10-19T10:31:43;11.02;;;10.02;;
51148;SDS011;37210;50.058;8.688;2023-10-19T10:34:12;9.40;;;8.20;;
51148;SDS011;37210;50.058;8.688;2023-10-19T10:39:39;8.88;;;7.85;;
51148;SDS011;37210;50.058;8.688;2023-10-19T10:42:11;8.45;;;7.65;;
51148;SDS011;37210;50.058;8.688;2023-10-19T10:44:40;7.75;;;7.05;;
51148;SDS011;37210;50.058;8.688;2023-10-19T10:47:10;7.88;;;6.38;;
51148;SDS011;37210;50.058;8.688;2023-10-19T10:49:46;8.15;;;6.88;;
51148;SDS011;37210;50.058;8.688;2023-10-19T10:52:29;11.18;;;8.30;;
51148;SDS011;37210;50.058;8.688;2023-10-19T10:55:06;15.80;;;14.35;;
51148;SDS011;37210;50.058;8.688;2023-10-19T10:57:38;8.57;;;7.05;;
51148;SDS011;37210;50.058;8.688;2023-10-19T11:00:08;10.32;;;7.57;;
51148;SDS011;37210;50.058;8.688;2023-10-19T11:02:41;7.47;;;6.72;;
51148;SDS011;37210;50.058;8.688;2023-10-19T11:05:12;5.82;;;5.22;;
51148;SDS011;37210;50.058;8.688;2023-10-19T11:08:01;6.82;;;5.57;;
51148;SDS011;37210;50.058;8.688;2023-10-19T11:10:39;5.30;;;4.07;;
51148;SDS011;37210;50.058;8.688;2023-10-19T11:13:10;4.38;;;3.97;;
51148;SDS011;37210;50.058;8.688;2023-10-19T11:15:47;40.10;;;13.98;;
51148;SDS011;37210;50.058;8.688;2023-10-19T11:18:29;13.15;;;6.13;;
51148;SDS011;37210;50.058;8.688;2023-10-19T11:21:02;19.98;;;13.85;;
51148;SDS011;37210;50.058;8.688;2023-10-19T11:23:36;17.45;;;15.63;;
51148;SDS011;37210;50.058;8.688;2023-10-19T11:26:05;15.65;;;14.05;;
51148;SDS011;37210;50.058;8.688;2023-10-19T11:28:35;22.13;;;16.40;;
51148;SDS011;37210;50.058;8.688;2023-10-19T11:31:15;17.30;;;15.45;;
51148;SDS011;37210;50.058;8.688;2023-10-19T11:33:44;19.55;;;16.17;;
51148;SDS011;37210;50.058;8.688;2023-10-19T11:36:15;20.40;;;17.05;;
51148;SDS011;37210;50.058;8.688;2023-10-19T11:38:46;21.70;;;17.48;;
51148;SDS011;37210;50.058;8.688;2023-10-19T11:41:17;21.65;;;17.27;;
51148;SDS011;37210;50.058;8.688;2023-10-19T11:43:46;20.42;;;17.48;;
51148;SDS011;37210;50.058;8.688;2023-10-19T11:46:15;23.98;;;19.10;;
51148;SDS011;37210;50.058;8.688;2023-10-19T11:48:44;20.38;;;18.00;;
51148;SDS011;37210;50.058;8.688;2023-10-19T11:51:12;24.63;;;18.73;;
51148;SDS011;37210;50.058;8.688;2023-10-19T11:53:41;20.60;;;17.95;;
51148;SDS011;37210;50.058;8.688;2023-10-19T11:56:10;20.13;;;17.00;;
51148;SDS011;37210;50.058;8.688;2023-10-19T11:58:41;20.63;;;17.27;;
51148;SDS011;37210;50.058;8.688;2023-10-19T12:01:13;20.50;;;17.60;;
51148;SDS011;37210;50.058;8.688;2023-10-19T12:03:42;20.42;;;17.67;;
51148;SDS011;37210;50.058;8.688;2023-10-19T12:06:11;19.15;;;16.58;;
51148;SDS011;37210;50.058;8.688;2023-10-19T12:08:44;20.13;;;17.40;;
51148;SDS011;37210;50.058;8.688;2023-10-19T12:11:12;19.17;;;16.20;;
51148;SDS011;37210;50.058;8.688;2023-10-19T12:13:42;20.15;;;16.90;;
51148;SDS011;37210;50.058;8.688;2023-10-19T12:16:10;20.75;;;16.83;;
51148;SDS011;37210;50.058;8.688;2023-10-19T12:18:39;18.48;;;16.42;;
51148;SDS011;37210;50.058;8.688;2023-10-19T12:21:07;18.33;;;16.38;;
51148;SDS011;37210;50.058;8.688;2023-10-19T12:23:38;22.50;;;16.85;;
51148;SDS011;37210;50.058;8.688;2023-10-19T12:26:06;17.73;;;15.45;;
51148;SDS011;37210;50.058;8.688;2023-10-19T12:28:36;21.23;;;16.88;;
51148;SDS011;37210;50.058;8.688;2023-10-19T12:31:05;22.50;;;17.25;;
51148;SDS011;37210;50.058;8.688;2023-10-19T12:33:34;22.08;;;18.55;;
51148;SDS011;37210;50.058;8.688;2023-10-19T12:36:03;23.13;;;19.15;;
51148;SDS011;37210;50.058;8.688;2023-10-19T12:38:49;20.35;;;18.13;;
51148;SDS011;37210;50.058;8.688;2023-10-19T12:41:16;23.98;;;19.13;;
51148;SDS011;37210;50.058;8.688;2023-10-19T12:43:45;25.50;;;20.55;;
51148;SDS011;37210;50.058;8.688;2023-10-19T12:46:13;25.23;;;20.92;;
51148;SDS011;37210;50.058;8.688;2023-10-19T12:48:41;28.23;;;21.02;;
51148;SDS011;37210;50.058;8.688;2023-10-19T12:51:10;29.23;;;21.90;;
51148;SDS011;37210;50.058;8.688;2023-10-19T12:53:39;28.63;;;22.13;;
51148;SDS011;37210;50.058;8.688;2023-10-19T12:56:06;28.38;;;21.65;;
51148;SDS011;37210;50.058;8.688;2023-10-19T12:58:37;29.17;;;23.05;;
51148;SDS011;37210;50.058;8.688;2023-10-19T13:01:04;28.23;;;23.08;;
51148;SDS011;37210;50.058;8.688;2023-10-19T13:03:32;29.90;;;23.50;;
51148;SDS011;37210;50.058;8.688;2023-10-19T13:06:02;29.77;;;23.20;;
51148;SDS011;37210;50.058;8.688;2023-10-19T13:08:34;27.77;;;22.80;;
51148;SDS011;37210;50.058;8.688;2023-10-19T13:11:03;29.17;;;24.08;;
51148;SDS011;37210;50.058;8.688;2023-10-19T13:13:31;32.70;;;24.63;;
51148;SDS011;37210;50.058;8.688;2023-10-19T13:15:58;28.20;;;23.88;;
51148;SDS011;37210;50.058;8.688;2023-10-19T13:18:26;27.45;;;23.23;;
51148;SDS011;37210;50.058;8.688;2023-10-19T13:20:55;30.08;;;23.10;;
51148;SDS011;37210;50.058;8.688;2023-10-19T13:23:22;30.20;;;24.40;;
51148;SDS011;37210;50.058;8.688;2023-10-19T13:25:52;30.05;;;24.13;;
51148;SDS011;37210;50.058;8.688;2023-10-19T13:28:23;30.98;;;23.73;;
51148;SDS011;37210;50.058;8.688;2023-10-19T13:30:54;26.85;;;22.80;;
51148;SDS011;37210;50.058;8.688;2023-10-19T13:33:21;32.53;;;23.73;;
51148;SDS011;37210;50.058;8.688;2023-10-19T13:35:49;30.60;;;23.80;;
51148;SDS011;37210;50.058;8.688;2023-10-19T13:38:18;34.20;;;26.52;;
51148;SDS011;37210;50.058;8.688;2023-10-19T13:40:46;30.65;;;23.85;;
51148;SDS011;37210;50.058;8.688;2023-10-19T13:43:16;30.58;;;24.70;;
51148;SDS011;37210;50.058;8.688;2023-10-19T13:45:46;34.60;;;25.48;;
51148;SDS011;37210;50.058;8.688;2023-10-19T13:48:15;31.35;;;25.88;;
51148;SDS011;37210;50.058;8.688;2023-10-19T13:50:43;31.17;;;25.55;;
51148;SDS011;37210;50.058;8.688;2023-10-19T13:53:14;30.80;;;25.10;;
51148;SDS011;37210;50.058;8.688;2023-10-19T13:55:42;34.83;;;26.85;;
51148;SDS011;37210;50.058;8.688;2023-10-19T13:58:11;30.85;;;23.55;;
51148;SDS011;37210;50.058;8.688;2023-10-19T14:00:42;26.27;;;21.73;;
51148;SDS011;37210;50.058;8.688;2023-10-19T14:03:10;23.02;;;19.58;;
51148;SDS011;37210;50.058;8.688;2023-10-19T14:05:39;22.48;;;17.00;;
51148;SDS011;37210;50.058;8.688;2023-10-19T14:08:13;11.60;;;9.43;;
51148;SDS011;37210;50.058;8.688;2023-10-19T14:10:43;15.77;;;14.18;;
51148;SDS011;37210;50.058;8.688;2023-10-19T14:13:10;65.25;;;57.80;;
51148;SDS011;37210;50.058;8.688;2023-10-19T14:15:38;29.20;;;25.98;;
51148;SDS011;37210;50.058;8.688;2023-10-19T14:18:07;19.25;;;17.25;;
51148;SDS011;37210;50.058;8.688;2023-10-19T14:20:36;12.38;;;11.18;;
51148;SDS011;37210;50.058;8.688;2023-10-19T14:23:04;21.77;;;19.35;;
51148;SDS011;37210;50.058;8.688;2023-10-19T14:25:35;20.30;;;18.27;;
51148;SDS011;37210;50.058;8.688;2023-10-19T14:28:04;18.17;;;16.42;;
51148;SDS011;37210;50.058;8.688;2023-10-19T14:30:32;29.75;;;26.48;;
51148;SDS011;37210;50.058;8.688;2023-10-19T14:33:00;10.73;;;8.85;;
51148;SDS011;37210;50.058;8.688;2023-10-19T14:35:29;6.60;;;5.85;;
51148;SDS011;37210;50.058;8.688;2023-10-19T14:37:56;9.50;;;6.38;;
51148;SDS011;37210;50.058;8.688;2023-10-19T14:40:27;9.43;;;8.23;;
51148;SDS011;37210;50.058;8.688;2023-10-19T14:42:55;8.65;;;7.82;;
51148;SDS011;37210;50.058;8.688;2023-10-19T14:45:24;10.40;;;9.40;;
51148;SDS011;37210;50.058;8.688;2023-10-19T14:47:54;7.15;;;6.45;;
51148;SDS011;37210;50.058;8.688;2023-10-19T14:50:24;6.75;;;6.15;;